sensor_id;sensor_type;location;lat;lon;timestamp;temperature;humidity
10270;DHT22;5180;50.832;5.390;2022-11-30T00:00:34;9.30;99.90
10270;DHT22;5180;50.832;5.390;2022-11-30T00:03:00;9.30;99.90
10270;DHT22;5180;50.832;5.390;2022-11-30T00:05:26;9.30;99.90
10270;DHT22;5180;50.832;5.390;2022-11-30T00:07:51;9.30;99.90
10270;DHT22;5180;50.832;5.390;2022-11-30T00:10:19;9.30;99.90
10270;DHT22;5180;50.832;5.390;2022-11-30T00:12:45;9.20;99.90
10270;DHT22;5180;50.832;5.390;2022-11-30T00:15:12;9.20;99.90
10270;DHT22;5180;50.832;5.390;2022-11-30T00:17:47;9.20;99.90
10270;DHT22;5180;50.832;5.390;2022-11-30T00:20:14;9.20;99.90
10270;DHT22;5180;50.832;5.390;2022-11-30T00:22:40;9.20;99.90
10270;DHT22;5180;50.832;5.390;2022-11-30T00:25:07;9.20;99.90
10270;DHT22;5180;50.832;5.390;2022-11-30T00:27:33;9.20;99.90
10270;DHT22;5180;50.832;5.390;2022-11-30T00:29:59;9.20;99.90
10270;DHT22;5180;50.832;5.390;2022-11-30T00:32:26;9.20;99.90
10270;DHT22;5180;50.832;5.390;2022-11-30T00:34:52;9.20;99.90
10270;DHT22;5180;50.832;5.390;2022-11-30T00:37:17;9.30;99.90
10270;DHT22;5180;50.832;5.390;2022-11-30T00:39:43;9.30;99.90
10270;DHT22;5180;50.832;5.390;2022-11-30T00:42:09;9.20;99.90
10270;DHT22;5180;50.832;5.390;2022-11-30T00:44:35;9.10;99.90
10270;DHT22;5180;50.832;5.390;2022-11-30T00:47:00;9.10;99.90
10270;DHT22;5180;50.832;5.390;2022-11-30T00:49:26;9.10;99.90
10270;DHT22;5180;50.832;5.390;2022-11-30T00:51:52;9.10;99.90
10270;DHT22;5180;50.832;5.390;2022-11-30T00:54:17;9.10;99.90
10270;DHT22;5180;50.832;5.390;2022-11-30T00:56:43;9.00;99.90
10270;DHT22;5180;50.832;5.390;2022-11-30T00:59:09;9.00;99.90
10270;DHT22;5180;50.832;5.390;2022-11-30T01:01:35;9.00;99.90
10270;DHT22;5180;50.832;5.390;2022-11-30T01:04:01;8.90;99.90
10270;DHT22;5180;50.832;5.390;2022-11-30T01:06:27;8.90;99.90
10270;DHT22;5180;50.832;5.390;2022-11-30T01:08:53;9.00;99.90
10270;DHT22;5180;50.832;5.390;2022-11-30T01:11:24;8.90;99.90
10270;DHT22;5180;50.832;5.390;2022-11-30T01:13:51;8.90;99.90
10270;DHT22;5180;50.832;5.390;2022-11-30T01:16:19;8.90;99.90
10270;DHT22;5180;50.832;5.390;2022-11-30T01:18:47;8.90;99.90
10270;DHT22;5180;50.832;5.390;2022-11-30T01:21:15;8.80;99.90
10270;DHT22;5180;50.832;5.390;2022-11-30T01:23:41;8.90;99.90
10270;DHT22;5180;50.832;5.390;2022-11-30T01:26:08;8.80;99.90
10270;DHT22;5180;50.832;5.390;2022-11-30T01:28:34;8.80;99.90
10270;DHT22;5180;50.832;5.390;2022-11-30T01:31:01;8.80;99.90
10270;DHT22;5180;50.832;5.390;2022-11-30T01:33:27;8.80;99.90
10270;DHT22;5180;50.832;5.390;2022-11-30T01:36:22;8.70;99.90
10270;DHT22;5180;50.832;5.390;2022-11-30T01:38:52;8.70;99.90
10270;DHT22;5180;50.832;5.390;2022-11-30T01:41:30;8.60;99.90
10270;DHT22;5180;50.832;5.390;2022-11-30T01:49:15;8.50;99.90
10270;DHT22;5180;50.832;5.390;2022-11-30T01:51:51;8.50;99.90
10270;DHT22;5180;50.832;5.390;2022-11-30T01:54:23;8.40;99.90
10270;DHT22;5180;50.832;5.390;2022-11-30T01:56:56;8.40;99.90
10270;DHT22;5180;50.832;5.390;2022-11-30T01:59:24;8.40;99.90
10270;DHT22;5180;50.832;5.390;2022-11-30T02:01:51;8.40;99.90
10270;DHT22;5180;50.832;5.390;2022-11-30T02:04:31;8.40;99.90
10270;DHT22;5180;50.832;5.390;2022-11-30T02:06:58;8.30;99.90
10270;DHT22;5180;50.832;5.390;2022-11-30T02:09:26;8.30;99.90
10270;DHT22;5180;50.832;5.390;2022-11-30T02:11:53;8.30;99.90
10270;DHT22;5180;50.832;5.390;2022-11-30T02:14:45;8.20;99.90
10270;DHT22;5180;50.832;5.390;2022-11-30T02:17:22;8.20;99.90
10270;DHT22;5180;50.832;5.390;2022-11-30T02:22:58;8.20;99.90
10270;DHT22;5180;50.832;5.390;2022-11-30T02:31:11;8.20;99.90
10270;DHT22;5180;50.832;5.390;2022-11-30T02:33:40;8.20;99.90
10270;DHT22;5180;50.832;5.390;2022-11-30T02:36:07;8.20;99.90
10270;DHT22;5180;50.832;5.390;2022-11-30T02:38:34;8.20;99.90
10270;DHT22;5180;50.832;5.390;2022-11-30T02:41:00;8.20;99.90
10270;DHT22;5180;50.832;5.390;2022-11-30T02:43:27;8.20;99.90
10270;DHT22;5180;50.832;5.390;2022-11-30T02:51:24;8.10;99.90
10270;DHT22;5180;50.832;5.390;2022-11-30T02:53:51;8.10;99.90
10270;DHT22;5180;50.832;5.390;2022-11-30T02:56:17;8.20;99.90
10270;DHT22;5180;50.832;5.390;2022-11-30T02:58:44;8.10;99.90
10270;DHT22;5180;50.832;5.390;2022-11-30T03:01:09;8.10;99.90
10270;DHT22;5180;50.832;5.390;2022-11-30T03:03:35;8.10;99.90
10270;DHT22;5180;50.832;5.390;2022-11-30T03:06:01;8.00;99.90
10270;DHT22;5180;50.832;5.390;2022-11-30T03:08:27;8.00;99.90
10270;DHT22;5180;50.832;5.390;2022-11-30T03:10:52;8.00;99.90
10270;DHT22;5180;50.832;5.390;2022-11-30T03:13:18;8.00;99.90
10270;DHT22;5180;50.832;5.390;2022-11-30T03:15:43;8.00;99.90
10270;DHT22;5180;50.832;5.390;2022-11-30T03:18:09;8.00;99.90
10270;DHT22;5180;50.832;5.390;2022-11-30T03:20:40;8.00;99.90
10270;DHT22;5180;50.832;5.390;2022-11-30T03:23:06;8.00;99.90
10270;DHT22;5180;50.832;5.390;2022-11-30T03:25:31;8.00;99.90
10270;DHT22;5180;50.832;5.390;2022-11-30T03:27:59;8.00;99.90
10270;DHT22;5180;50.832;5.390;2022-11-30T03:30:25;8.00;99.90
10270;DHT22;5180;50.832;5.390;2022-11-30T03:32:51;8.00;99.90
10270;DHT22;5180;50.832;5.390;2022-11-30T03:35:17;8.00;99.90
10270;DHT22;5180;50.832;5.390;2022-11-30T03:37:43;8.00;99.90
10270;DHT22;5180;50.832;5.390;2022-11-30T03:40:09;8.00;99.90
10270;DHT22;5180;50.832;5.390;2022-11-30T03:42:36;8.00;99.90
10270;DHT22;5180;50.832;5.390;2022-11-30T03:45:02;8.00;99.90
10270;DHT22;5180;50.832;5.390;2022-11-30T03:47:28;8.00;99.90
10270;DHT22;5180;50.832;5.390;2022-11-30T03:49:53;8.00;99.90
10270;DHT22;5180;50.832;5.390;2022-11-30T03:52:19;8.00;99.90
10270;DHT22;5180;50.832;5.390;2022-11-30T03:54:44;8.00;99.90
10270;DHT22;5180;50.832;5.390;2022-11-30T03:57:10;8.00;99.90
10270;DHT22;5180;50.832;5.390;2022-11-30T03:59:36;8.00;99.90
10270;DHT22;5180;50.832;5.390;2022-11-30T04:02:01;8.00;99.90
10270;DHT22;5180;50.832;5.390;2022-11-30T04:04:27;7.90;99.90
10270;DHT22;5180;50.832;5.390;2022-11-30T04:06:52;7.90;99.90
10270;DHT22;5180;50.832;5.390;2022-11-30T04:09:18;7.90;99.90
10270;DHT22;5180;50.832;5.390;2022-11-30T04:11:44;7.80;99.90
10270;DHT22;5180;50.832;5.390;2022-11-30T04:14:10;7.80;99.90
10270;DHT22;5180;50.832;5.390;2022-11-30T04:16:36;7.80;99.90
10270;DHT22;5180;50.832;5.390;2022-11-30T04:19:01;7.80;99.90
10270;DHT22;5180;50.832;5.390;2022-11-30T04:21:27;7.80;99.90
10270;DHT22;5180;50.832;5.390;2022-11-30T04:23:52;7.80;99.90
10270;DHT22;5180;50.832;5.390;2022-11-30T04:26:18;7.80;99.90
10270;DHT22;5180;50.832;5.390;2022-11-30T04:28:44;7.80;99.90
10270;DHT22;5180;50.832;5.390;2022-11-30T04:31:10;7.80;99.90
10270;DHT22;5180;50.832;5.390;2022-11-30T04:33:36;7.80;99.90
10270;DHT22;5180;50.832;5.390;2022-11-30T04:36:03;7.80;99.90
10270;DHT22;5180;50.832;5.390;2022-11-30T04:38:31;7.80;99.90
10270;DHT22;5180;50.832;5.390;2022-11-30T04:40:57;7.80;99.90
10270;DHT22;5180;50.832;5.390;2022-11-30T04:43:23;7.80;99.90
10270;DHT22;5180;50.832;5.390;2022-11-30T04:45:49;7.80;99.90
10270;DHT22;5180;50.832;5.390;2022-11-30T04:48:16;7.80;99.90
10270;DHT22;5180;50.832;5.390;2022-11-30T04:50:42;7.80;99.90
10270;DHT22;5180;50.832;5.390;2022-11-30T04:53:08;7.80;99.90
10270;DHT22;5180;50.832;5.390;2022-11-30T04:55:36;7.90;99.90
10270;DHT22;5180;50.832;5.390;2022-11-30T04:58:03;7.80;99.90
10270;DHT22;5180;50.832;5.390;2022-11-30T05:00:28;7.80;99.90
10270;DHT22;5180;50.832;5.390;2022-11-30T05:02:55;7.80;99.90
10270;DHT22;5180;50.832;5.390;2022-11-30T05:05:20;7.80;99.90
10270;DHT22;5180;50.832;5.390;2022-11-30T05:08:04;7.80;99.90
10270;DHT22;5180;50.832;5.390;2022-11-30T05:10:30;7.80;99.90
10270;DHT22;5180;50.832;5.390;2022-11-30T05:12:58;7.70;99.90
10270;DHT22;5180;50.832;5.390;2022-11-30T05:15:24;7.70;99.90
10270;DHT22;5180;50.832;5.390;2022-11-30T05:17:50;7.70;99.90
10270;DHT22;5180;50.832;5.390;2022-11-30T05:20:16;7.70;99.90
10270;DHT22;5180;50.832;5.390;2022-11-30T05:22:42;7.70;99.90
10270;DHT22;5180;50.832;5.390;2022-11-30T05:25:07;7.70;99.90
10270;DHT22;5180;50.832;5.390;2022-11-30T05:27:34;7.70;99.90
10270;DHT22;5180;50.832;5.390;2022-11-30T05:30:00;7.70;99.90
10270;DHT22;5180;50.832;5.390;2022-11-30T05:32:25;7.70;99.90
10270;DHT22;5180;50.832;5.390;2022-11-30T05:34:51;7.70;99.90
10270;DHT22;5180;50.832;5.390;2022-11-30T05:37:17;7.70;99.90
10270;DHT22;5180;50.832;5.390;2022-11-30T05:39:43;7.70;99.90
10270;DHT22;5180;50.832;5.390;2022-11-30T05:42:08;7.70;99.90
10270;DHT22;5180;50.832;5.390;2022-11-30T05:44:34;7.70;99.90
10270;DHT22;5180;50.832;5.390;2022-11-30T05:46:59;7.70;99.90
10270;DHT22;5180;50.832;5.390;2022-11-30T05:49:25;7.70;99.90
10270;DHT22;5180;50.832;5.390;2022-11-30T05:51:51;7.70;99.90
10270;DHT22;5180;50.832;5.390;2022-11-30T05:54:16;7.70;99.90
10270;DHT22;5180;50.832;5.390;2022-11-30T05:56:42;7.70;99.90
10270;DHT22;5180;50.832;5.390;2022-11-30T05:59:09;7.60;99.90
10270;DHT22;5180;50.832;5.390;2022-11-30T06:01:35;7.60;99.90
10270;DHT22;5180;50.832;5.390;2022-11-30T06:04:03;7.60;99.90
10270;DHT22;5180;50.832;5.390;2022-11-30T06:06:29;7.60;99.90
10270;DHT22;5180;50.832;5.390;2022-11-30T06:08:55;7.70;99.90
10270;DHT22;5180;50.832;5.390;2022-11-30T06:11:20;7.70;99.90
10270;DHT22;5180;50.832;5.390;2022-11-30T06:13:46;7.70;99.90
10270;DHT22;5180;50.832;5.390;2022-11-30T06:16:12;7.70;99.90
10270;DHT22;5180;50.832;5.390;2022-11-30T06:18:37;7.70;99.90
10270;DHT22;5180;50.832;5.390;2022-11-30T06:21:06;7.70;99.90
10270;DHT22;5180;50.832;5.390;2022-11-30T06:23:32;7.70;99.90
10270;DHT22;5180;50.832;5.390;2022-11-30T06:26:02;7.70;99.90
10270;DHT22;5180;50.832;5.390;2022-11-30T06:28:29;7.70;99.90
10270;DHT22;5180;50.832;5.390;2022-11-30T06:31:00;7.60;99.90
10270;DHT22;5180;50.832;5.390;2022-11-30T06:33:27;7.70;99.90
10270;DHT22;5180;50.832;5.390;2022-11-30T06:35:52;7.70;99.90
10270;DHT22;5180;50.832;5.390;2022-11-30T06:38:18;7.70;99.90
10270;DHT22;5180;50.832;5.390;2022-11-30T06:40:44;7.70;99.90
10270;DHT22;5180;50.832;5.390;2022-11-30T06:43:09;7.70;99.90
10270;DHT22;5180;50.832;5.390;2022-11-30T06:45:35;7.70;99.90
10270;DHT22;5180;50.832;5.390;2022-11-30T06:48:01;7.70;99.90
10270;DHT22;5180;50.832;5.390;2022-11-30T06:50:27;7.70;99.90
10270;DHT22;5180;50.832;5.390;2022-11-30T06:52:52;7.70;99.90
10270;DHT22;5180;50.832;5.390;2022-11-30T06:55:18;7.80;99.90
10270;DHT22;5180;50.832;5.390;2022-11-30T06:57:43;7.80;99.90
10270;DHT22;5180;50.832;5.390;2022-11-30T07:00:10;7.80;99.90
10270;DHT22;5180;50.832;5.390;2022-11-30T07:02:37;7.80;99.90
10270;DHT22;5180;50.832;5.390;2022-11-30T07:05:03;7.80;99.90
10270;DHT22;5180;50.832;5.390;2022-11-30T07:07:29;7.80;99.90
10270;DHT22;5180;50.832;5.390;2022-11-30T07:09:55;7.80;99.90
10270;DHT22;5180;50.832;5.390;2022-11-30T07:12:20;7.90;99.90
10270;DHT22;5180;50.832;5.390;2022-11-30T07:14:46;7.90;99.90
10270;DHT22;5180;50.832;5.390;2022-11-30T07:17:12;7.90;99.90
10270;DHT22;5180;50.832;5.390;2022-11-30T07:19:38;7.90;99.90
10270;DHT22;5180;50.832;5.390;2022-11-30T07:22:03;8.00;99.90
10270;DHT22;5180;50.832;5.390;2022-11-30T07:24:29;8.00;99.90
10270;DHT22;5180;50.832;5.390;2022-11-30T07:27:13;8.00;99.90
10270;DHT22;5180;50.832;5.390;2022-11-30T07:29:39;7.90;99.90
10270;DHT22;5180;50.832;5.390;2022-11-30T07:32:05;7.90;99.90
10270;DHT22;5180;50.832;5.390;2022-11-30T07:34:30;7.90;99.90
10270;DHT22;5180;50.832;5.390;2022-11-30T07:36:56;7.90;99.90
10270;DHT22;5180;50.832;5.390;2022-11-30T07:39:22;7.90;99.90
10270;DHT22;5180;50.832;5.390;2022-11-30T07:41:48;7.90;99.90
10270;DHT22;5180;50.832;5.390;2022-11-30T07:44:14;7.90;99.90
10270;DHT22;5180;50.832;5.390;2022-11-30T07:46:40;7.90;99.90
10270;DHT22;5180;50.832;5.390;2022-11-30T07:49:07;8.00;99.90
10270;DHT22;5180;50.832;5.390;2022-11-30T07:51:33;8.00;99.90
10270;DHT22;5180;50.832;5.390;2022-11-30T07:54:00;8.00;99.90
10270;DHT22;5180;50.832;5.390;2022-11-30T07:56:26;8.10;99.90
10270;DHT22;5180;50.832;5.390;2022-11-30T07:58:55;8.10;99.90
10270;DHT22;5180;50.832;5.390;2022-11-30T08:01:24;8.20;99.90
10270;DHT22;5180;50.832;5.390;2022-11-30T08:03:50;8.20;99.90
10270;DHT22;5180;50.832;5.390;2022-11-30T08:06:19;8.30;99.90
10270;DHT22;5180;50.832;5.390;2022-11-30T08:08:47;8.30;99.90
10270;DHT22;5180;50.832;5.390;2022-11-30T08:11:15;8.40;99.90
10270;DHT22;5180;50.832;5.390;2022-11-30T08:13:41;8.50;99.90
10270;DHT22;5180;50.832;5.390;2022-11-30T08:16:13;8.50;99.90
10270;DHT22;5180;50.832;5.390;2022-11-30T08:18:40;8.60;99.90
10270;DHT22;5180;50.832;5.390;2022-11-30T08:21:08;8.70;99.90
10270;DHT22;5180;50.832;5.390;2022-11-30T08:23:42;8.80;99.90
10270;DHT22;5180;50.832;5.390;2022-11-30T08:26:13;8.80;99.90
10270;DHT22;5180;50.832;5.390;2022-11-30T08:28:40;8.90;99.90
10270;DHT22;5180;50.832;5.390;2022-11-30T08:31:08;8.90;99.90
10270;DHT22;5180;50.832;5.390;2022-11-30T08:33:35;8.90;99.90
10270;DHT22;5180;50.832;5.390;2022-11-30T08:36:11;8.90;99.90
10270;DHT22;5180;50.832;5.390;2022-11-30T08:38:38;8.90;99.90
10270;DHT22;5180;50.832;5.390;2022-11-30T08:41:04;8.90;99.90
10270;DHT22;5180;50.832;5.390;2022-11-30T08:43:31;9.00;99.90
10270;DHT22;5180;50.832;5.390;2022-11-30T08:45:57;9.00;99.90
10270;DHT22;5180;50.832;5.390;2022-11-30T08:48:23;9.00;99.90
10270;DHT22;5180;50.832;5.390;2022-11-30T08:50:48;9.10;99.90
10270;DHT22;5180;50.832;5.390;2022-11-30T08:53:14;9.00;99.90
10270;DHT22;5180;50.832;5.390;2022-11-30T08:55:40;8.90;99.90
10270;DHT22;5180;50.832;5.390;2022-11-30T08:58:06;9.00;99.90
10270;DHT22;5180;50.832;5.390;2022-11-30T09:00:31;9.00;99.90
10270;DHT22;5180;50.832;5.390;2022-11-30T09:02:57;9.00;99.90
10270;DHT22;5180;50.832;5.390;2022-11-30T09:05:22;9.10;99.90
10270;DHT22;5180;50.832;5.390;2022-11-30T09:07:48;9.10;99.90
10270;DHT22;5180;50.832;5.390;2022-11-30T09:10:14;9.10;99.90
10270;DHT22;5180;50.832;5.390;2022-11-30T09:12:40;9.20;99.90
10270;DHT22;5180;50.832;5.390;2022-11-30T09:15:07;9.20;99.90
10270;DHT22;5180;50.832;5.390;2022-11-30T09:17:34;9.20;99.90
10270;DHT22;5180;50.832;5.390;2022-11-30T09:20:00;9.20;99.90
10270;DHT22;5180;50.832;5.390;2022-11-30T09:22:26;9.30;99.90
10270;DHT22;5180;50.832;5.390;2022-11-30T09:24:52;9.40;99.90
10270;DHT22;5180;50.832;5.390;2022-11-30T09:27:18;9.40;99.90
10270;DHT22;5180;50.832;5.390;2022-11-30T09:29:43;9.40;99.90
10270;DHT22;5180;50.832;5.390;2022-11-30T09:32:09;9.40;99.90
10270;DHT22;5180;50.832;5.390;2022-11-30T09:34:34;9.40;99.90
10270;DHT22;5180;50.832;5.390;2022-11-30T09:37:00;9.40;99.90
10270;DHT22;5180;50.832;5.390;2022-11-30T09:39:26;9.40;99.90
10270;DHT22;5180;50.832;5.390;2022-11-30T09:48:02;9.40;99.90
10270;DHT22;5180;50.832;5.390;2022-11-30T09:50:38;9.50;99.90
10270;DHT22;5180;50.832;5.390;2022-11-30T09:53:17;9.50;99.90
10270;DHT22;5180;50.832;5.390;2022-11-30T09:55:44;9.60;99.90
10270;DHT22;5180;50.832;5.390;2022-11-30T10:00:48;9.70;99.90
10270;DHT22;5180;50.832;5.390;2022-11-30T10:03:14;9.90;99.90
10270;DHT22;5180;50.832;5.390;2022-11-30T10:06:08;9.90;99.90
10270;DHT22;5180;50.832;5.390;2022-11-30T10:08:46;9.90;99.90
10270;DHT22;5180;50.832;5.390;2022-11-30T10:11:26;10.00;99.90
10270;DHT22;5180;50.832;5.390;2022-11-30T10:14:08;10.00;99.90
10270;DHT22;5180;50.832;5.390;2022-11-30T10:17:04;10.10;99.90
10270;DHT22;5180;50.832;5.390;2022-11-30T10:22:20;10.20;99.90
10270;DHT22;5180;50.832;5.390;2022-11-30T10:25:24;10.30;99.90
10270;DHT22;5180;50.832;5.390;2022-11-30T10:27:57;10.30;99.90
10270;DHT22;5180;50.832;5.390;2022-11-30T10:30:30;10.30;99.90
10270;DHT22;5180;50.832;5.390;2022-11-30T10:33:08;10.20;99.90
10270;DHT22;5180;50.832;5.390;2022-11-30T10:38:11;10.20;99.90
10270;DHT22;5180;50.832;5.390;2022-11-30T10:40:50;10.20;99.90
10270;DHT22;5180;50.832;5.390;2022-11-30T10:43:32;10.20;99.90
10270;DHT22;5180;50.832;5.390;2022-11-30T10:46:03;10.20;99.90
10270;DHT22;5180;50.832;5.390;2022-11-30T10:48:44;10.10;99.90
10270;DHT22;5180;50.832;5.390;2022-11-30T10:51:12;10.10;99.90
10270;DHT22;5180;50.832;5.390;2022-11-30T10:53:37;10.00;99.90
10270;DHT22;5180;50.832;5.390;2022-11-30T10:56:10;10.00;99.90
10270;DHT22;5180;50.832;5.390;2022-11-30T10:58:57;9.90;99.90
10270;DHT22;5180;50.832;5.390;2022-11-30T11:01:31;9.90;99.90
10270;DHT22;5180;50.832;5.390;2022-11-30T11:04:18;10.10;99.90
10270;DHT22;5180;50.832;5.390;2022-11-30T11:12:13;10.40;99.90
10270;DHT22;5180;50.832;5.390;2022-11-30T11:14:40;10.50;99.90
10270;DHT22;5180;50.832;5.390;2022-11-30T11:17:22;10.60;99.90
10270;DHT22;5180;50.832;5.390;2022-11-30T11:19:49;10.80;99.90
10270;DHT22;5180;50.832;5.390;2022-11-30T11:22:29;11.00;99.90
10270;DHT22;5180;50.832;5.390;2022-11-30T11:25:10;11.00;99.90
10270;DHT22;5180;50.832;5.390;2022-11-30T11:27:40;10.90;99.90
10270;DHT22;5180;50.832;5.390;2022-11-30T11:30:17;10.80;99.90
10270;DHT22;5180;50.832;5.390;2022-11-30T11:35:39;10.60;99.90
10270;DHT22;5180;50.832;5.390;2022-11-30T11:38:28;10.50;99.90
10270;DHT22;5180;50.832;5.390;2022-11-30T11:41:01;10.40;99.90
10270;DHT22;5180;50.832;5.390;2022-11-30T11:43:30;10.30;99.90
10270;DHT22;5180;50.832;5.390;2022-11-30T11:46:02;10.30;99.90
10270;DHT22;5180;50.832;5.390;2022-11-30T11:49:04;10.70;99.90
10270;DHT22;5180;50.832;5.390;2022-11-30T11:51:38;11.00;99.90
10270;DHT22;5180;50.832;5.390;2022-11-30T11:54:33;11.10;99.90
10270;DHT22;5180;50.832;5.390;2022-11-30T11:57:00;11.10;99.90
10270;DHT22;5180;50.832;5.390;2022-11-30T12:12:31;11.70;99.90
10270;DHT22;5180;50.832;5.390;2022-11-30T12:14:56;11.50;99.90
10270;DHT22;5180;50.832;5.390;2022-11-30T12:18:16;11.50;99.90
10270;DHT22;5180;50.832;5.390;2022-11-30T12:20:43;11.30;99.90
10270;DHT22;5180;50.832;5.390;2022-11-30T12:28:41;11.20;99.90
10270;DHT22;5180;50.832;5.390;2022-11-30T12:31:16;11.20;99.90
10270;DHT22;5180;50.832;5.390;2022-11-30T12:33:53;11.00;99.90
10270;DHT22;5180;50.832;5.390;2022-11-30T12:36:32;10.80;99.90
10270;DHT22;5180;50.832;5.390;2022-11-30T12:41:58;10.70;99.90
10270;DHT22;5180;50.832;5.390;2022-11-30T12:53:16;10.80;99.90
10270;DHT22;5180;50.832;5.390;2022-11-30T13:03:54;11.00;99.90
10270;DHT22;5180;50.832;5.390;2022-11-30T13:08:52;10.90;99.90
10270;DHT22;5180;50.832;5.390;2022-11-30T13:11:26;10.80;99.90
10270;DHT22;5180;50.832;5.390;2022-11-30T13:13:56;10.80;99.90
10270;DHT22;5180;50.832;5.390;2022-11-30T13:16:24;10.80;99.90
10270;DHT22;5180;50.832;5.390;2022-11-30T13:18:52;10.70;99.90
10270;DHT22;5180;50.832;5.390;2022-11-30T13:21:25;10.80;99.90
10270;DHT22;5180;50.832;5.390;2022-11-30T13:34:29;10.50;99.90
10270;DHT22;5180;50.832;5.390;2022-11-30T13:37:05;10.50;99.90
10270;DHT22;5180;50.832;5.390;2022-11-30T13:44:38;10.70;99.90
10270;DHT22;5180;50.832;5.390;2022-11-30T13:49:40;10.70;99.90
10270;DHT22;5180;50.832;5.390;2022-11-30T13:52:08;10.70;99.90
10270;DHT22;5180;50.832;5.390;2022-11-30T13:54:48;10.50;99.90
10270;DHT22;5180;50.832;5.390;2022-11-30T14:18:29;9.90;99.90
10270;DHT22;5180;50.832;5.390;2022-11-30T14:21:09;9.80;99.90
10270;DHT22;5180;50.832;5.390;2022-11-30T14:23:57;9.70;99.90
10270;DHT22;5180;50.832;5.390;2022-11-30T14:26:39;9.70;99.90
10270;DHT22;5180;50.832;5.390;2022-11-30T14:31:36;9.70;99.90
10270;DHT22;5180;50.832;5.390;2022-11-30T14:34:22;9.70;99.90
10270;DHT22;5180;50.832;5.390;2022-11-30T14:36:55;9.60;99.90
10270;DHT22;5180;50.832;5.390;2022-11-30T14:39:32;9.70;99.90
10270;DHT22;5180;50.832;5.390;2022-11-30T14:41:59;9.60;99.90
10270;DHT22;5180;50.832;5.390;2022-11-30T14:44:25;9.50;99.90
10270;DHT22;5180;50.832;5.390;2022-11-30T14:46:51;9.50;99.90
10270;DHT22;5180;50.832;5.390;2022-11-30T14:49:22;9.40;99.90
10270;DHT22;5180;50.832;5.390;2022-11-30T14:51:53;9.40;99.90
10270;DHT22;5180;50.832;5.390;2022-11-30T14:57:28;9.40;99.90
10270;DHT22;5180;50.832;5.390;2022-11-30T14:59:55;9.40;99.90
10270;DHT22;5180;50.832;5.390;2022-11-30T15:02:31;9.40;99.90
10270;DHT22;5180;50.832;5.390;2022-11-30T15:04:59;9.40;99.90
10270;DHT22;5180;50.832;5.390;2022-11-30T15:07:27;9.40;99.90
10270;DHT22;5180;50.832;5.390;2022-11-30T15:10:15;9.30;99.90
10270;DHT22;5180;50.832;5.390;2022-11-30T15:12:43;9.30;99.90
10270;DHT22;5180;50.832;5.390;2022-11-30T15:15:21;9.10;99.90
10270;DHT22;5180;50.832;5.390;2022-11-30T15:17:57;9.00;99.90
10270;DHT22;5180;50.832;5.390;2022-11-30T15:20:28;8.90;99.90
10270;DHT22;5180;50.832;5.390;2022-11-30T15:22:56;8.80;99.90
10270;DHT22;5180;50.832;5.390;2022-11-30T15:25:27;8.80;99.90
10270;DHT22;5180;50.832;5.390;2022-11-30T15:27:55;8.80;99.90
10270;DHT22;5180;50.832;5.390;2022-11-30T15:30:23;8.80;99.90
10270;DHT22;5180;50.832;5.390;2022-11-30T15:32:49;8.70;99.90
10270;DHT22;5180;50.832;5.390;2022-11-30T15:35:22;8.70;99.90
10270;DHT22;5180;50.832;5.390;2022-11-30T15:37:48;8.70;99.90
10270;DHT22;5180;50.832;5.390;2022-11-30T15:40:24;8.70;99.90
10270;DHT22;5180;50.832;5.390;2022-11-30T15:42:52;8.70;99.90
10270;DHT22;5180;50.832;5.390;2022-11-30T15:47:56;8.60;99.90
10270;DHT22;5180;50.832;5.390;2022-11-30T15:55:43;8.60;99.90
10270;DHT22;5180;50.832;5.390;2022-11-30T16:01:20;8.60;99.90
10270;DHT22;5180;50.832;5.390;2022-11-30T16:06:28;8.50;99.90
10270;DHT22;5180;50.832;5.390;2022-11-30T16:08:56;8.40;99.90
10270;DHT22;5180;50.832;5.390;2022-11-30T16:11:22;8.40;99.90
10270;DHT22;5180;50.832;5.390;2022-11-30T16:13:48;8.40;99.90
10270;DHT22;5180;50.832;5.390;2022-11-30T16:16:27;8.40;99.90
10270;DHT22;5180;50.832;5.390;2022-11-30T16:18:53;8.40;99.90
10270;DHT22;5180;50.832;5.390;2022-11-30T16:21:19;8.40;99.90
10270;DHT22;5180;50.832;5.390;2022-11-30T16:23:45;8.40;99.90
10270;DHT22;5180;50.832;5.390;2022-11-30T16:26:16;8.40;99.90
10270;DHT22;5180;50.832;5.390;2022-11-30T16:28:42;8.40;99.90
10270;DHT22;5180;50.832;5.390;2022-11-30T16:31:14;8.40;99.90
10270;DHT22;5180;50.832;5.390;2022-11-30T16:33:40;8.40;99.90
10270;DHT22;5180;50.832;5.390;2022-11-30T16:36:07;8.40;99.90
10270;DHT22;5180;50.832;5.390;2022-11-30T16:38:33;8.50;99.90
10270;DHT22;5180;50.832;5.390;2022-11-30T16:41:23;8.50;99.90
10270;DHT22;5180;50.832;5.390;2022-11-30T16:43:52;8.50;99.90
10270;DHT22;5180;50.832;5.390;2022-11-30T16:46:20;8.50;99.90
10270;DHT22;5180;50.832;5.390;2022-11-30T16:48:46;8.50;99.90
10270;DHT22;5180;50.832;5.390;2022-11-30T16:51:27;8.50;99.90
10270;DHT22;5180;50.832;5.390;2022-11-30T16:53:54;8.50;99.90
10270;DHT22;5180;50.832;5.390;2022-11-30T16:56:20;8.50;99.90
10270;DHT22;5180;50.832;5.390;2022-11-30T16:58:46;8.50;99.90
10270;DHT22;5180;50.832;5.390;2022-11-30T17:01:37;8.40;99.90
10270;DHT22;5180;50.832;5.390;2022-11-30T17:04:19;8.50;99.90
10270;DHT22;5180;50.832;5.390;2022-11-30T17:06:45;8.40;99.90
10270;DHT22;5180;50.832;5.390;2022-11-30T17:09:12;8.40;99.90
10270;DHT22;5180;50.832;5.390;2022-11-30T17:11:39;8.40;99.90
10270;DHT22;5180;50.832;5.390;2022-11-30T17:14:05;8.50;99.90
10270;DHT22;5180;50.832;5.390;2022-11-30T17:16:30;8.50;99.90
10270;DHT22;5180;50.832;5.390;2022-11-30T17:18:56;8.50;99.90
10270;DHT22;5180;50.832;5.390;2022-11-30T17:21:31;8.50;99.90
10270;DHT22;5180;50.832;5.390;2022-11-30T17:23:57;8.40;99.90
10270;DHT22;5180;50.832;5.390;2022-11-30T17:26:23;8.40;99.90
10270;DHT22;5180;50.832;5.390;2022-11-30T17:28:50;8.40;99.90
10270;DHT22;5180;50.832;5.390;2022-11-30T17:31:16;8.50;99.90
10270;DHT22;5180;50.832;5.390;2022-11-30T17:33:41;8.40;99.90
10270;DHT22;5180;50.832;5.390;2022-11-30T17:36:10;8.40;99.90
10270;DHT22;5180;50.832;5.390;2022-11-30T17:38:37;8.40;99.90
10270;DHT22;5180;50.832;5.390;2022-11-30T17:41:06;8.40;99.90
10270;DHT22;5180;50.832;5.390;2022-11-30T17:43:34;8.40;99.90
10270;DHT22;5180;50.832;5.390;2022-11-30T17:46:04;8.40;99.90
10270;DHT22;5180;50.832;5.390;2022-11-30T17:48:30;8.40;99.90
10270;DHT22;5180;50.832;5.390;2022-11-30T17:50:56;8.40;99.90
10270;DHT22;5180;50.832;5.390;2022-11-30T17:53:22;8.40;99.90
10270;DHT22;5180;50.832;5.390;2022-11-30T17:55:48;8.40;99.90
10270;DHT22;5180;50.832;5.390;2022-11-30T17:58:13;8.40;99.90
10270;DHT22;5180;50.832;5.390;2022-11-30T18:00:39;8.40;99.90
10270;DHT22;5180;50.832;5.390;2022-11-30T18:03:05;8.40;99.90
10270;DHT22;5180;50.832;5.390;2022-11-30T18:05:31;8.40;99.90
10270;DHT22;5180;50.832;5.390;2022-11-30T18:07:57;8.50;99.90
10270;DHT22;5180;50.832;5.390;2022-11-30T18:10:23;8.40;99.90
10270;DHT22;5180;50.832;5.390;2022-11-30T18:12:48;8.40;99.90
10270;DHT22;5180;50.832;5.390;2022-11-30T18:15:14;8.40;99.90
10270;DHT22;5180;50.832;5.390;2022-11-30T18:17:40;8.40;99.90
10270;DHT22;5180;50.832;5.390;2022-11-30T18:20:09;8.40;99.90
10270;DHT22;5180;50.832;5.390;2022-11-30T18:22:35;8.40;99.90
10270;DHT22;5180;50.832;5.390;2022-11-30T18:25:00;8.30;99.90
10270;DHT22;5180;50.832;5.390;2022-11-30T18:27:26;8.20;99.90
10270;DHT22;5180;50.832;5.390;2022-11-30T18:29:51;8.20;99.90
10270;DHT22;5180;50.832;5.390;2022-11-30T18:32:17;8.20;99.90